This is the latest recevied weather packets stored in our database for station/object OE6JUE. If no packets are shown the sender has not sent any weather packets the latest 10 day(s).
| Time | Temp. | Humidity | Pressure | Rain* | Wind** | Luminosity | Snow |
|---|---|---|---|---|---|---|---|
| 1777504276 | 5.56° C | 56% | 1027.4 hPa | 0 mm | - | - | - |
| 1777503821 | 6.11° C | 51% | 1027.3 hPa | 0 mm | - | - | - |
| 1777503521 | 6.11° C | 51% | 1027.3 hPa | 0 mm | - | - | - |
| 1777503221 | 6.67° C | 53% | 1027.1 hPa | 0 mm | - | - | - |
| 1777502921 | 6.67° C | 56% | 1027.1 hPa | 0 mm | - | - | - |
| 1777502621 | 6.67° C | 56% | 1027.1 hPa | 0 mm | - | - | - |
| 1777502321 | 7.22° C | 50% | 1027.1 hPa | 0 mm | - | - | - |
| 1777502021 | 7.78° C | 43% | 1027.1 hPa | 0 mm | - | - | - |
| 1777501721 | 7.78° C | 40% | 1027 hPa | 0 mm | - | - | - |
| 1777501421 | 7.78° C | 42% | 1026.9 hPa | 0 mm | - | - | - |
| 1777501121 | 7.78° C | 42% | 1026.9 hPa | 0 mm | - | - | - |
| 1777500820 | 7.78° C | 43% | 1026.7 hPa | 0 mm | - | - | - |
| 1777500521 | 8.33° C | 38% | 1026.6 hPa | 0 mm | - | - | - |
| 1777500221 | 8.33° C | 38% | 1026.6 hPa | 0 mm | - | - | - |
| 1777499921 | 7.78° C | 39% | 1026.7 hPa | 0 mm | - | - | - |
| 1777499621 | 7.78° C | 40% | 1026.6 hPa | 0 mm | - | - | - |
| 1777499321 | 7.78° C | 40% | 1026.6 hPa | 0 mm | - | - | - |
| 1777499021 | 7.78° C | 40% | 1026.5 hPa | 0 mm | - | - | - |
| 1777498720 | 7.78° C | 41% | 1026.5 hPa | 0 mm | - | - | - |
| 1777498421 | 7.78° C | 42% | 1026.4 hPa | 0 mm | - | - | - |
| 1777498120 | 7.78° C | 43% | 1026.2 hPa | 0 mm | - | - | - |
| 1777497821 | 7.78° C | 47% | 1026.2 hPa | 0 mm | - | - | - |
| 1777497520 | 7.78° C | 52% | 1026.2 hPa | 0 mm | - | - | - |
| 1777497220 | 7.22° C | 61% | 1026 hPa | 0 mm | - | - | - |
| 1777496921 | 6.67° C | 67% | 1025.9 hPa | 0 mm | - | - | - |
* Rain latest hour (hover to see other rain measurements)
** Current wind speed in m/s (hover to see current wind gust speed)